Aiguafreda





Hora UTC 22:00
Temperatura 8.3 ºC
Sòl 15 cm 6.8 ºC
Humitat 93.1 %
Pressió 1025.4 hPa
Pluja 0.0 mm
Velocitat vent 0.0 km/h
Direcció vent NNE
Radiació solar 0.0 W/m²

Dades diàries 2020-10-29



Hora UTC (hivern +1h; estiu +2h)
Temperatura (ºC) Humitat (%) Pressió (hPa) Velocitat vent (km/h) Precipitació (mm) Radiació solar (W/m²)
Hora UTC Aire Sòl 15 cm Humitat Pressió Vel. Dir. Vel. Max Dir. Intent. màx 5 min. Rad. Sol.
00:05 7.0 5.7 93.7 1023.1 0.0 NNE 0.0 SW 0.0 0.0
00:10 7.0 5.6 93.8 1023.3 0.0 NNE 0.0 SW 0.0 0.0
00:15 6.9 5.6 93.9 1023.4 0.0 NNE 0.0 SW 0.0 0.0
00:20 6.8 5.5 93.9 1023.4 0.0 NNE 0.0 SW 0.0 0.0
00:25 6.8 5.4 94.0 1023.3 0.0 NNE 0.0 SSE 0.0 0.0
00:30 6.8 5.3 94.1 1023.3 0.0 NNE 0.0 SSE 0.0 0.0
00:35 6.7 5.3 94.2 1023.3 0.0 NNE 0.0 E 0.0 0.0
00:40 6.7 5.3 94.4 1023.4 0.0 NNE 0.0 NNE 0.0 0.0
00:45 6.6 5.3 94.6 1023.3 0.0 NNE 0.0 NNE 0.0 0.0
00:50 6.7 5.3 94.8 1023.3 0.0 NNE 0.0 N 0.0 0.0
00:55 6.6 5.3 94.8 1023.3 0.0 NNE 0.0 NNE 0.0 0.0
01:00 6.6 5.2 94.9 1023.4 0.0 NNE 0.0 NNE 0.0 0.0
01:05 6.6 5.2 95.0 1023.4 0.0 NNE 0.0 N 0.0 0.0
01:10 6.6 5.1 95.0 1023.5 0.0 NNE 0.0 N 0.0 0.0
01:15 6.5 5.1 95.1 1023.5 0.0 NNE 0.0 N 0.0 0.0
01:20 6.5 5.1 95.0 1023.5 0.0 NNE 0.0 N 0.0 0.0
01:25 6.4 5.0 95.1 1023.6 0.0 NNE 0.0 N 0.0 0.0
01:30 6.4 5.0 95.1 1023.5 0.0 NNE 0.0 N 0.0 0.0
01:35 6.3 5.0 95.2 1023.6 0.0 NNE 0.0 E 0.0 0.0
01:40 6.3 5.0 95.2 1023.6 0.0 NNE 0.0 E 0.0 0.0
01:45 6.3 5.0 95.2 1023.6 0.0 NNE 0.0 E 0.0 0.0
01:50 6.2 4.9 95.3 1023.6 0.0 NNE 0.0 E 0.0 0.0
01:55 6.2 4.9 95.3 1023.6 0.0 NNE 0.0 E 0.0 0.0
02:00 6.2 4.9 95.4 1023.5 0.0 NNE 0.0 E 0.0 0.0
02:05 6.1 4.9 95.4 1023.4 0.0 NNE 0.0 E 0.0 0.0
02:10 6.1 4.8 95.5 1023.4 0.0 NNE 0.0 E 0.0 0.0
02:15 6.1 4.9 95.5 1023.5 0.0 NNE 0.0 E 0.0 0.0
02:20 6.1 4.8 95.6 1023.3 0.0 NNE 0.0 N 0.0 0.0
02:25 6.1 4.8 95.6 1023.2 0.0 NNE 0.0 N 0.0 0.0
02:30 6.0 4.8 95.7 1023.1 0.0 NNE 0.0 N 0.0 0.0
02:35 6.0 4.8 95.7 1023.1 0.0 NNE 0.0 N 0.0 0.0
02:40 6.0 4.8 95.7 1023.1 0.0 NNE 0.0 N 0.0 0.0
02:45 6.1 4.9 95.8 1023.2 0.0 NNE 0.0 N 0.0 0.0
02:50 6.2 5.3 95.8 1023.2 0.0 NNE 0.0 N 0.0 0.0
02:55 6.2 5.2 95.7 1023.3 0.0 NNE 0.0 N 0.0 0.0
03:00 6.2 5.2 95.7 1023.4 0.0 NNE 0.0 N 0.0 0.0
03:05 6.2 5.3 95.7 1023.4 0.0 NNE 0.0 SE 0.0 0.0
03:10 6.3 5.4 95.6 1023.4 0.0 NNE 0.0 SSE 0.0 0.0
03:15 6.3 5.4 95.5 1023.3 0.0 NNE 0.0 SE 0.0 0.0
03:20 6.4 5.6 95.5 1023.2 0.0 NNE 0.0 S 0.0 0.0
03:25 6.4 5.7 95.4 1023.4 0.0 NNE 0.0 S 0.0 0.0
03:30 6.6 5.8 95.5 1023.3 0.0 NNE 0.0 NNE 0.0 0.0
03:35 6.7 6.0 95.4 1023.5 0.0 NNE 0.0 WNW 0.0 0.0
03:40 6.7 6.1 95.3 1023.3 0.0 NNE 0.0 SW 0.0 0.0
03:45 6.8 6.2 95.2 1023.2 0.0 NNE 0.0 SSE 0.0 0.0
03:50 6.9 6.2 95.1 1023.3 0.0 NNE 0.0 NE 0.0 0.0
03:55 6.9 6.2 94.9 1023.5 0.0 NNE 0.0 NE 0.0 0.0
04:00 7.0 6.2 95.0 1023.5 0.0 NNE 0.0 NE 0.0 0.0
04:05 7.0 6.2 94.8 1023.6 0.0 NNE 0.0 NNE 0.0 0.0
04:10 7.0 6.2 94.7 1023.9 0.0 NNE 0.0 SE 0.0 0.0
04:15 7.1 6.3 94.7 1023.8 0.0 NNE 0.0 NE 0.0 0.0
04:20 7.2 6.4 94.7 1023.8 0.0 NNE 0.0 SW 0.0 0.0
04:25 7.2 6.5 94.5 1023.8 0.0 NNE 0.0 SSW 0.0 0.0
04:30 7.3 6.6 94.4 1023.9 0.0 NNE 0.0 ESE 0.0 0.0
04:35 7.3 6.7 94.3 1023.8 0.0 NNE 0.0 ESE 0.0 0.0
04:40 7.4 6.8 94.1 1023.7 0.0 NNE 0.0 NE 0.0 0.0
04:45 7.5 6.9 93.9 1024.0 0.0 NNE 0.0 S 0.0 0.0
04:50 7.6 7.0 93.7 1024.1 0.0 NNE 0.0 S 0.0 0.0
04:55 7.7 7.2 93.4 1024.0 0.0 NNE 0.0 SE 0.0 0.0
05:00 7.9 7.3 93.2 1024.0 0.0 NNE 0.0 SSE 0.0 0.0
05:05 8.0 7.4 92.9 1024.1 0.0 NNE 0.0 SSW 0.0 0.0
05:10 8.1 7.5 92.8 1024.1 0.0 NNE 0.0 SW 0.0 0.0
05:15 8.2 7.5 92.6 1024.3 0.0 NNE 0.0 SW 0.0 0.0
05:20 8.3 7.6 92.3 1024.3 0.0 NNE 0.0 SW 0.0 0.0
05:25 8.3 7.6 92.2 1024.3 0.0 NNE 0.0 ESE 0.0 0.0
05:30 8.4 7.7 92.1 1024.2 0.0 NNE 0.0 S 0.0 0.0
05:35 8.4 7.7 92.1 1024.3 0.0 NNE 0.0 SE 0.0 0.0
05:40 8.5 7.7 92.1 1024.4 0.0 NNE 0.0 SSW 0.0 0.0
05:45 8.5 7.7 92.1 1024.3 0.0 NNE 0.0 SSW 0.0 0.0
05:50 8.5 7.7 92.1 1024.2 0.0 NNE 0.0 SSW 0.0 0.0
05:55 8.6 7.7 92.1 1024.3 0.0 NNE 0.0 WNW 0.0 0.0
06:00 8.6 7.8 92.1 1024.3 0.0 NNE 0.0 S 0.0 0.0
06:05 8.7 7.9 92.1 1024.1 0.0 NNE 0.0 ESE 0.0 0.0
06:10 8.7 7.9 92.1 1024.2 0.0 NNE 0.0 ESE 0.0 0.0
06:15 8.7 7.8 92.1 1024.1 0.0 NNE 0.0 NNE 0.0 0.0
06:20 8.6 7.7 92.2 1024.2 0.0 NNE 0.0 NW 0.0 0.0
06:25 8.6 7.5 92.3 1024.1 0.0 NNE 0.0 NW 0.0 0.0
06:30 8.5 7.4 92.6 1024.3 0.0 NNE 0.0 NW 0.0 0.0
06:35 8.4 7.5 93.0 1024.4 0.0 NNE 0.0 NNE 0.0 0.0
06:40 8.5 7.6 93.2 1024.3 0.0 NNE 0.0 NE 0.0 0.0
06:45 8.6 7.8 93.2 1024.3 0.0 NNE 0.0 SSE 0.0 0.0
06:50 8.7 7.8 93.1 1024.6 0.0 NNE 0.0 NW 0.0 0.0
06:55 8.7 7.7 93.0 1024.7 0.0 NNE 0.0 NW 0.0 0.0
07:00 8.7 7.8 93.0 1024.7 0.0 NNE 0.0 NW 0.0 0.0
07:05 8.8 8.0 93.1 1024.8 0.0 NNE 0.0 NE 0.0 0.0
07:10 8.9 8.1 93.0 1024.8 0.0 NNE 0.0 NE 0.0 0.0
07:15 9.0 8.3 92.8 1024.9 0.0 NNE 0.0 NE 0.0 0.0
07:20 9.1 8.5 92.7 1025.0 0.0 NNE 0.0 NE 0.0 0.0
07:25 9.2 8.8 92.5 1024.9 0.0 NNE 0.0 SSE 0.0 0.0
07:30 9.4 8.9 92.1 1025.0 0.0 NNE 0.0 ESE 0.0 0.0
07:35 9.5 9.1 91.6 1025.1 0.0 NNE 0.0 ESE 0.0 0.0
07:40 9.6 9.3 90.8 1025.2 0.0 NNE 0.0 SSE 0.0 0.0
07:45 9.8 9.4 90.5 1025.2 0.0 NNE 0.0 SSE 0.0 0.0
07:50 9.9 9.6 90.1 1025.1 0.0 NNE 0.0 SSE 0.0 0.0
07:55 10.1 9.9 89.7 1025.0 0.0 NNE 0.0 S 0.0 0.0
08:00 10.3 10.2 89.0 1025.1 0.0 NNE 0.0 WSW 0.0 0.0
08:05 10.6 10.5 88.2 1025.0 0.0 NNE 0.0 SW 0.0 0.0
08:10 10.7 10.7 87.4 1024.9 0.0 NNE 0.0 ESE 0.0 0.0
08:15 11.0 11.2 87.0 1025.0 0.0 NNE 0.0 SW 0.0 0.0
08:20 11.4 12.0 85.9 1025.0 0.0 NNE 0.0 SW 0.0 0.0
08:25 12.2 13.2 83.6 1024.9 0.0 NNE 0.0 SSE 0.0 0.0
08:30 12.9 13.7 80.5 1024.9 0.3 WSW 6.1 SW 0.0 4.0
08:35 13.5 14.4 77.4 1024.8 1.1 WSW 6.1 WSW 0.0 3.2
08:40 13.8 15.2 76.0 1024.8 1.3 WSW 6.1 W 0.0 0.7
08:45 14.3 15.7 74.2 1024.9 0.4 SSW 3.4 WSW 0.0 0.0
08:50 14.9 16.9 72.4 1024.9 0.4 SW 6.1 WSW 0.0 0.0
08:55 15.7 18.6 70.1 1025.0 1.4 SW 6.1 SW 0.0 0.0
09:00 16.2 19.6 67.3 1025.1 0.9 SW 6.1 SSW 0.0 0.0
09:05 16.6 19.5 65.9 1025.1 0.2 W 3.4 W 0.0 0.0
09:10 16.5 19.7 66.7 1025.1 0.0 NNE 0.0 W 0.0 0.0
09:15 16.5 19.2 68.0 1025.4 0.0 SSE 3.4 SSE 0.0 0.0
09:20 16.2 17.9 70.0 1025.5 1.2 WSW 6.1 WSW 0.0 0.0
09:25 15.9 17.5 72.2 1025.6 0.1 WSW 3.4 W 0.0 0.0
09:30 15.7 17.2 73.5 1025.6 0.0 NNE 0.0 S 0.0 0.0
09:35 15.8 17.9 74.2 1025.4 0.5 SW 6.1 SW 0.0 1.5
09:40 16.4 19.0 72.6 1025.5 1.4 SSW 6.1 SSW 0.0 43.0
09:45 16.9 19.5 70.8 1025.5 1.1 S 6.1 SE 0.0 0.0
09:50 16.9 19.3 70.9 1025.3 1.0 S 6.1 SSE 0.0 0.0
09:55 17.1 19.9 70.5 1025.4 3.2 SSE 11.5 S 0.0 0.0
10:00 17.0 20.6 71.7 1025.4 6.1 S 11.5 SSE 0.0 0.1
10:05 17.4 20.7 70.3 1025.5 5.8 SW 11.5 SW 0.0 0.0
10:10 17.3 19.8 70.8 1025.2 5.1 SSW 11.5 S 0.0 0.9
10:15 17.4 20.0 69.7 1025.3 5.9 SE 11.5 SSE 0.0 0.0
10:20 17.3 19.7 70.4 1025.2 4.8 SSE 11.5 ESE 0.0 17.9
10:25 17.7 20.5 68.4 1025.3 5.7 SSE 11.5 S 0.0 4.0
10:30 17.7 20.2 67.4 1025.3 3.5 SSE 8.8 SSE 0.0 11.5
10:35 17.9 21.1 67.1 1025.2 5.3 SSE 11.5 ESE 0.0 31.6
10:40 18.0 21.0 66.9 1025.2 1.9 S 8.8 SSE 0.0 7.7
10:45 18.1 21.7 66.8 1025.0 4.7 ESE 11.5 SE 0.0 5.4
10:50 18.2 21.2 65.8 1025.1 4.7 SE 8.8 SSE 0.0 171.0
10:55 18.4 21.5 65.2 1025.1 3.3 SSE 8.8 S 0.0 305.8
11:00 18.3 21.2 65.1 1025.0 3.6 SSE 6.1 SSE 0.0 263.1
11:05 18.4 20.6 64.7 1025.0 4.4 SE 8.8 SE 0.0 21.0
11:10 18.0 19.8 65.6 1025.0 4.9 S 11.5 SE 0.0 42.5
11:15 18.2 19.8 64.1 1024.8 5.1 SSE 11.5 SE 0.0 0.7
11:20 17.9 19.1 65.1 1024.8 2.2 E 8.8 ESE 0.0 0.1
11:25 17.8 18.8 65.8 1024.7 2.0 SE 6.1 S 0.0 3.9
11:30 17.8 19.5 65.6 1024.7 1.1 SE 6.1 SE 0.0 53.1
11:35 18.4 21.3 64.2 1024.6 3.9 SSE 8.8 SE 0.0 116.0
11:40 19.0 22.1 62.4 1024.6 3.5 SSW 6.1 SSW 0.0 121.1
11:45 19.5 23.0 61.0 1024.5 4.7 SSW 8.8 NW 0.0 158.2
11:50 19.8 23.5 60.1 1024.2 4.2 SSW 11.5 SW 0.0 105.8
11:55 19.7 22.8 58.0 1024.2 5.3 SSE 8.8 SE 0.0 86.8
12:00 19.8 23.9 59.2 1024.3 3.5 S 8.8 S 0.0 96.8
12:05 20.0 24.0 58.4 1024.2 2.2 SSW 8.8 WSW 0.0 50.4
12:10 20.2 23.6 54.1 1024.2 5.4 NNW 11.5 WSW 0.0 66.5
12:15 19.9 22.9 51.6 1024.3 7.0 NW 16.9 NW 0.0 113.0
12:20 19.7 22.4 50.8 1024.2 7.3 W 19.6 WNW 0.0 67.9
12:25 19.6 21.4 50.9 1024.5 5.3 W 14.2 WSW 0.0 68.1
12:30 19.7 21.5 52.6 1024.3 5.3 N 11.5 NNE 0.0 78.7
12:35 20.0 21.6 51.0 1024.2 6.0 SSW 16.9 WSW 0.0 70.1
12:40 20.0 21.3 50.2 1024.1 8.5 WSW 16.9 SW 0.0 13.1
12:45 20.0 21.2 50.7 1024.1 7.8 SW 14.2 WSW 0.0 0.1
12:50 19.8 21.6 51.5 1024.1 6.8 W 16.9 WSW 0.0 0.3
12:55 19.7 21.8 51.8 1024.0 6.6 SSW 16.9 SSW 0.0 0.0
13:00 19.5 21.6 52.2 1023.9 4.8 SW 14.2 S 0.0 0.1
13:05 19.4 21.1 52.7 1024.0 7.0 WSW 14.2 W 0.0 0.0
13:10 19.5 21.3 52.5 1023.9 8.0 W 16.9 NW 0.0 0.1
13:15 19.5 20.8 52.2 1024.2 7.9 WSW 14.2 W 0.0 0.0
13:20 19.5 20.7 52.9 1023.9 6.8 WSW 16.9 SW 0.0 0.2
13:25 19.7 21.0 52.2 1023.8 7.1 WSW 16.9 WSW 0.0 0.0
13:30 19.6 21.9 52.5 1023.9 6.1 WSW 11.5 WSW 0.0 0.1
13:35 19.9 22.2 51.6 1023.7 1.9 WSW 8.8 WNW 0.0 0.0
13:40 19.6 21.9 53.2 1023.8 0.9 SW 6.1 NW 0.0 0.0
13:45 19.8 22.6 52.8 1023.7 2.6 NNW 14.2 WSW 0.0 0.0
13:50 20.1 23.0 51.4 1023.8 6.6 WSW 14.2 SW 0.0 0.0
13:55 20.1 23.0 50.9 1023.6 5.0 SW 11.5 WSW 0.0 0.1
14:00 20.1 23.1 50.9 1023.7 6.3 WSW 16.9 SW 0.0 0.2
14:05 20.0 22.9 50.2 1023.5 7.5 WSW 19.6 WSW 0.0 0.0
14:10 19.9 22.9 51.1 1023.6 8.9 WSW 16.9 WSW 0.0 0.1
14:15 20.0 23.2 52.1 1023.6 1.3 NE 8.8 NNE 0.0 0.0
14:20 20.1 23.2 52.3 1023.7 2.5 NE 8.8 NNW 0.0 0.1
14:25 20.0 22.5 52.5 1023.9 1.9 ENE 8.8 ENE 0.0 0.0
14:30 19.8 22.3 53.3 1023.7 5.1 NE 14.2 NNE 0.0 0.0
14:35 19.9 22.2 53.0 1023.5 3.0 NNE 11.5 N 0.0 0.0
14:40 19.9 22.2 53.3 1023.7 4.4 ESE 14.2 WNW 0.0 0.0
14:45 20.1 22.1 53.3 1023.9 3.3 SE 8.8 NE 0.0 0.0
14:50 20.0 22.3 53.0 1023.9 3.5 ENE 11.5 ENE 0.0 0.4
14:55 20.0 22.0 52.5 1023.7 2.6 ENE 8.8 ENE 0.0 0.0
15:00 19.9 21.5 53.3 1023.7 3.4 NE 11.5 ENE 0.0 2.2
15:05 19.8 21.3 52.7 1023.8 2.5 N 11.5 ENE 0.0 0.0
15:10 19.7 21.4 53.2 1023.8 1.9 SSW 6.1 SW 0.0 0.0
15:15 19.7 21.4 53.8 1023.8 3.7 NE 8.8 SE 0.0 0.0
15:20 19.7 21.3 53.0 1023.8 3.6 NE 11.5 NNW 0.0 0.0
15:25 19.8 21.6 52.9 1023.7 0.6 ENE 6.1 ENE 0.0 0.0
15:30 19.6 20.7 54.0 1023.7 0.6 NNW 6.1 N 0.0 0.0
15:35 19.1 19.7 56.0 1023.9 1.4 NNW 6.1 NNW 0.0 0.0
15:40 18.8 19.1 56.5 1023.9 0.5 NNW 6.1 NNW 0.0 2.5
15:45 18.4 18.4 59.0 1023.9 0.1 SW 3.4 WSW 0.0 18.6
15:50 18.0 17.8 62.7 1023.7 0.1 NNE 3.4 NE 0.0 30.1
15:55 17.5 17.1 63.6 1023.9 0.1 W 3.4 W 0.0 28.7
16:00 17.1 16.6 66.1 1023.9 0.6 NNW 3.4 NNW 0.0 0.0
16:05 16.7 16.2 67.2 1023.8 0.3 NNE 3.4 N 0.0 17.4
16:10 16.5 15.7 68.0 1023.9 1.4 NW 6.1 WNW 0.0 24.6
16:15 16.3 15.3 68.5 1023.9 0.5 NNW 6.1 NNW 0.0 19.0
16:20 16.1 15.0 69.8 1024.0 0.0 NNE 0.0 NNW 0.0 2.4
16:25 15.9 14.6 71.2 1023.8 0.0 NNE 0.0 SE 0.0 13.4
16:30 15.6 14.3 72.2 1024.1 0.0 NNE 0.0 SE 0.0 0.0
16:35 15.3 14.0 73.7 1024.1 0.0 NNE 0.0 SSW 0.0 0.0
16:40 15.0 13.7 75.0 1023.7 0.0 NNE 0.0 NNE 0.0 0.0
16:45 14.7 13.4 76.1 1024.0 0.0 NNE 0.0 NNE 0.0 0.0
16:50 14.5 13.1 77.0 1024.0 0.0 NNE 0.0 NNE 0.0 0.0
16:55 14.3 12.8 77.6 1023.9 0.0 NNE 0.0 NNE 0.0 0.0
17:00 14.0 12.5 78.6 1024.1 0.0 NNE 0.0 NNE 0.0 0.0
17:05 13.8 12.3 79.3 1023.9 0.0 NNE 0.0 NNE 0.0 0.0
17:10 13.7 12.0 79.9 1024.1 0.0 NNE 0.0 ENE 0.0 0.0
17:15 13.5 11.8 80.8 1024.3 0.0 NNE 0.0 W 0.0 0.0
17:20 13.2 11.6 81.7 1024.3 0.0 NNW 3.4 NNW 0.0 0.0
17:25 13.1 11.4 82.0 1024.2 0.0 NNE 0.0 NE 0.0 0.0
17:30 13.0 11.2 82.4 1024.3 0.0 NNE 0.0 NE 0.0 0.0
17:35 12.8 11.1 82.8 1024.5 0.1 WNW 3.4 WNW 0.0 0.0
17:40 12.6 10.9 83.2 1024.4 0.0 NNE 0.0 NW 0.0 0.0
17:45 12.5 10.8 83.1 1024.5 0.1 ENE 3.4 E 0.0 0.0
17:50 12.4 10.7 83.5 1024.6 0.0 NNE 0.0 NE 0.0 0.3
17:55 12.3 10.5 83.6 1024.6 0.0 NNE 0.0 WSW 0.0 0.1
18:00 12.1 10.4 84.2 1024.6 0.0 NNE 0.0 NW 0.0 0.0
18:05 12.0 10.3 84.4 1024.7 0.0 NE 3.4 NE 0.0 0.0
18:10 11.9 10.2 84.3 1024.7 0.0 NNE 0.0 NE 0.0 0.0
18:15 11.9 10.0 84.5 1024.6 0.0 NNE 0.0 E 0.0 0.0
18:20 11.7 9.9 85.0 1024.8 0.0 NNE 0.0 SSW 0.0 0.0
18:25 11.5 9.7 85.5 1024.8 0.0 NNE 0.0 SSW 0.0 0.0
18:30 11.3 9.6 86.0 1024.9 0.0 NNE 0.0 SSW 0.0 0.0
18:35 11.2 9.5 86.6 1025.1 0.0 NNE 0.0 SSW 0.0 0.0
18:40 11.1 9.4 87.1 1025.0 0.0 NNE 0.0 N 0.0 0.0
18:45 11.1 9.4 87.3 1025.0 0.1 WNW 3.4 WNW 0.0 0.0
18:50 11.0 9.3 87.2 1024.8 0.0 NNE 0.0 SE 0.0 0.0
18:55 10.9 9.2 87.6 1024.9 0.0 NNE 0.0 NE 0.0 0.0
19:00 10.8 9.0 87.9 1024.8 0.0 NNE 0.0 NE 0.0 0.0
19:05 10.6 9.0 88.2 1024.8 0.0 NNE 0.0 NE 0.0 0.0
19:10 10.5 8.9 88.6 1024.9 0.0 NNE 0.0 NE 0.0 0.0
19:15 10.5 8.9 88.8 1024.9 0.0 NNE 0.0 NNW 0.0 0.0
19:20 10.4 8.8 88.5 1024.8 0.0 NNE 0.0 NNE 0.0 0.0
19:25 10.3 8.6 88.8 1024.7 0.0 NNE 0.0 NNE 0.0 0.0
19:30 10.2 8.6 89.1 1024.8 0.0 NNE 0.0 NNW 0.0 0.0
19:35 10.1 8.5 89.1 1024.8 0.0 NNE 0.0 NNW 0.0 0.0
19:40 10.0 8.3 89.5 1024.8 0.0 NNE 0.0 NNW 0.0 0.0
19:45 9.9 8.3 89.8 1024.9 0.0 NNE 0.0 NE 0.0 0.0
19:50 9.9 8.2 89.9 1024.8 0.0 NNE 0.0 ENE 0.0 0.0
19:55 9.8 8.1 90.1 1025.0 0.0 NNE 0.0 ENE 0.0 0.0
20:00 9.7 8.1 90.3 1024.9 0.0 NNE 0.0 ENE 0.0 0.0
20:05 9.6 8.0 90.4 1025.0 0.0 NNE 0.0 ENE 0.0 0.0
20:10 9.5 7.9 90.6 1025.0 0.0 NNE 0.0 ENE 0.0 0.0
20:15 9.4 7.8 90.8 1025.0 0.0 NNE 0.0 ENE 0.0 0.0
20:20 9.4 7.8 91.1 1025.0 0.0 NNE 0.0 ENE 0.0 0.0
20:25 9.3 7.8 91.2 1025.0 0.0 NNE 0.0 NE 0.0 0.0
20:30 9.2 7.7 91.5 1025.2 0.0 NNE 0.0 NE 0.0 0.0
20:35 9.2 7.7 91.8 1025.1 0.2 NW 6.1 NW 0.0 0.0
20:40 9.2 7.7 91.8 1025.2 0.0 NNE 0.0 NW 0.0 0.0
20:45 9.1 7.8 91.8 1025.1 0.0 NNE 0.0 ENE 0.0 0.0
20:50 9.1 7.6 91.7 1025.2 0.0 NNE 0.0 NNE 0.0 0.0
20:55 9.0 7.5 91.8 1025.3 0.0 NNE 0.0 NNE 0.0 0.0
21:00 8.9 7.4 92.0 1025.3 0.0 NNE 0.0 NNE 0.0 0.0
21:05 8.9 7.4 92.2 1025.3 0.0 NNE 0.0 NNE 0.0 0.0
21:10 8.8 7.3 92.1 1025.4 0.0 NNE 0.0 ENE 0.0 0.0
21:15 8.7 7.2 92.3 1025.4 0.0 NNE 0.0 ENE 0.0 0.0
21:20 8.6 7.1 92.4 1025.3 0.0 NNE 0.0 ENE 0.0 0.0
21:25 8.5 7.0 92.5 1025.4 0.0 NNE 0.0 ENE 0.0 0.0
21:30 8.5 7.0 92.8 1025.3 0.0 NNE 0.0 ENE 0.0 0.0
21:35 8.5 7.1 93.1 1025.4 0.5 NE 6.1 NE 0.0 0.0
21:40 8.5 7.0 93.0 1025.3 0.0 NNE 0.0 NE 0.0 0.0
21:45 8.5 7.1 93.0 1025.4 0.0 NNE 0.0 NNE 0.0 0.0
21:50 8.4 7.0 92.9 1025.4 0.0 NNE 0.0 NNW 0.0 0.0
21:55 8.3 6.9 92.9 1025.4 0.0 NNE 0.0 NNE 0.0 0.0
22:00 8.3 6.8 93.1 1025.4 0.0 NNE 0.0 NNE 0.0 0.0
Màxima 20.3 24.0 95.8 1025.6 8.9 WSW 19.6 WSW 0.0 305.8
Mínima 6.0 4.8 50.2 1023.1
Total 0.0